createdAt,value
2023-04-27T00:01:41.803Z,56.89
2023-04-27T00:04:10.261Z,56.82
2023-04-27T00:06:40.116Z,56.77
2023-04-27T00:09:08.410Z,57.02
2023-04-27T00:11:38.451Z,56.95
2023-04-27T00:14:06.841Z,57.30
2023-04-27T00:16:36.017Z,57.23
2023-04-27T00:19:04.829Z,57.14
2023-04-27T00:21:33.303Z,57.31
2023-04-27T00:24:02.060Z,57.42
2023-04-27T00:26:30.374Z,57.48
2023-04-27T00:29:01.673Z,57.56
2023-04-27T00:31:29.987Z,57.46
2023-04-27T00:33:59.279Z,57.55
2023-04-27T00:36:27.570Z,57.77
2023-04-27T00:38:57.512Z,57.68
2023-04-27T00:41:26.554Z,57.80
2023-04-27T00:43:54.806Z,57.83
2023-04-27T00:46:26.763Z,58.07
2023-04-27T00:48:55.328Z,58.13
2023-04-27T00:51:27.785Z,58.31
2023-04-27T00:53:58.239Z,58.49
2023-04-27T00:56:28.217Z,58.37
2023-04-27T00:58:56.878Z,58.50
2023-04-27T01:01:28.028Z,58.60
2023-04-27T01:03:56.425Z,58.58
2023-04-27T01:06:25.600Z,58.62
2023-04-27T01:08:54.069Z,58.88
2023-04-27T01:11:23.821Z,58.83
2023-04-27T01:13:53.356Z,58.92
2023-04-27T01:16:21.763Z,59.15
2023-04-27T01:18:52.523Z,59.12
2023-04-27T01:21:21.893Z,59.28
2023-04-27T01:23:51.630Z,59.19
2023-04-27T01:26:20.602Z,59.41
2023-04-27T01:28:50.128Z,59.50
2023-04-27T01:31:19.118Z,59.52
2023-04-27T01:33:48.858Z,59.52
2023-04-27T01:36:17.574Z,59.43
2023-04-27T01:38:46.303Z,59.48
2023-04-27T01:41:15.978Z,59.50
2023-04-27T01:43:45.055Z,59.67
2023-04-27T01:46:15.632Z,59.52
2023-04-27T01:48:44.775Z,59.83
2023-04-27T01:51:14.424Z,59.75
2023-04-27T01:53:43.302Z,59.87
2023-04-27T01:56:12.444Z,59.90
2023-04-27T01:58:41.985Z,59.91
2023-04-27T02:01:11.830Z,59.96
2023-04-27T02:03:40.614Z,59.95
2023-04-27T02:06:09.383Z,59.97
2023-04-27T02:08:38.551Z,59.98
2023-04-27T02:11:10.181Z,59.97
2023-04-27T02:13:42.712Z,60.20
2023-04-27T02:16:11.187Z,60.25
2023-04-27T02:18:42.177Z,60.30
2023-04-27T02:21:11.800Z,60.45
2023-04-27T02:23:40.727Z,60.33
2023-04-27T02:26:09.031Z,60.33
2023-04-27T02:28:39.568Z,60.34
2023-04-27T02:31:09.772Z,60.27
2023-04-27T02:33:38.517Z,60.39
2023-04-27T02:36:08.028Z,60.60
2023-04-27T02:38:36.392Z,60.46
2023-04-27T02:41:05.133Z,60.52
2023-04-27T02:43:35.582Z,60.61
2023-04-27T02:46:08.314Z,60.80
2023-04-27T02:48:37.956Z,60.79
2023-04-27T02:51:08.113Z,60.72
2023-04-27T02:53:36.374Z,60.83
2023-04-27T02:56:06.765Z,60.77
2023-04-27T02:58:35.141Z,60.64
2023-04-27T03:01:04.302Z,60.74
2023-04-27T03:03:33.222Z,60.82
2023-04-27T03:06:03.782Z,60.72
2023-04-27T03:08:33.865Z,60.70
2023-04-27T03:11:02.196Z,60.85
2023-04-27T03:13:31.213Z,60.73
2023-04-27T03:16:01.142Z,60.83
2023-04-27T03:18:31.132Z,60.60
2023-04-27T03:21:08.054Z,60.63
2023-04-27T03:23:38.503Z,60.75
2023-04-27T03:26:07.738Z,60.78
2023-04-27T03:28:37.539Z,60.62
2023-04-27T03:31:07.167Z,60.89
2023-04-27T03:33:36.892Z,60.84
2023-04-27T03:36:07.812Z,60.66
2023-04-27T03:38:36.520Z,60.84
2023-04-27T03:41:06.012Z,60.73
2023-04-27T03:43:34.248Z,60.99
2023-04-27T03:46:04.852Z,60.96
2023-04-27T03:48:33.307Z,61.02
2023-04-27T03:51:03.094Z,61.10
2023-04-27T03:53:32.731Z,61.10
2023-04-27T03:56:03.738Z,60.90
2023-04-27T03:58:32.253Z,60.88
2023-04-27T04:01:11.536Z,60.88
2023-04-27T04:03:41.246Z,60.94
2023-04-27T04:06:10.277Z,60.98
2023-04-27T04:08:40.388Z,61.04
2023-04-27T04:11:08.628Z,61.04
2023-04-27T04:13:39.467Z,60.96
2023-04-27T04:16:09.615Z,61.07
2023-04-27T04:18:39.056Z,60.95
2023-04-27T04:21:07.636Z,61.15
2023-04-27T04:23:36.358Z,61.11
2023-04-27T04:26:06.158Z,61.22
2023-04-27T04:28:37.086Z,61.24
2023-04-27T04:31:06.559Z,61.04
2023-04-27T04:33:34.879Z,61.02
2023-04-27T04:36:05.055Z,60.88
2023-04-27T04:38:35.111Z,60.97
2023-04-27T04:41:03.953Z,60.81
2023-04-27T04:43:35.920Z,60.90
2023-04-27T04:46:07.332Z,60.90
2023-04-27T04:48:35.885Z,60.92
2023-04-27T04:51:07.222Z,60.86
2023-04-27T04:53:36.831Z,60.97
2023-04-27T04:56:12.119Z,60.81
2023-04-27T04:58:41.741Z,60.82
2023-04-27T05:01:10.966Z,60.94
2023-04-27T05:03:40.215Z,60.99
2023-04-27T05:06:09.106Z,60.87
2023-04-27T05:08:37.792Z,60.89
2023-04-27T05:11:06.208Z,60.94
2023-04-27T05:13:35.584Z,60.69
2023-04-27T05:18:56.340Z,60.72
2023-04-27T05:21:24.573Z,60.81
2023-04-27T05:23:52.832Z,60.57
2023-04-27T05:26:21.250Z,60.73
2023-04-27T05:28:50.684Z,60.58
2023-04-27T05:31:20.412Z,60.76
2023-04-27T05:33:49.117Z,60.75
2023-04-27T05:36:18.298Z,60.48
2023-04-27T05:38:46.554Z,60.43
2023-04-27T05:41:15.926Z,60.51
2023-04-27T05:43:44.217Z,60.44
2023-04-27T05:46:14.835Z,60.43
2023-04-27T05:48:44.471Z,60.45
2023-04-27T05:51:13.118Z,60.35
2023-04-27T05:53:41.915Z,60.10
2023-04-27T05:56:11.727Z,60.09
2023-04-27T05:58:40.960Z,61.83
2023-04-27T06:01:09.575Z,60.90
2023-04-27T06:03:38.568Z,60.34
2023-04-27T06:06:08.532Z,60.30
2023-04-27T06:08:38.076Z,60.16
2023-04-27T06:11:06.403Z,59.95
2023-04-27T06:13:35.163Z,59.79
2023-04-27T06:16:03.665Z,59.65
2023-04-27T06:18:32.525Z,59.77
2023-04-27T06:21:02.183Z,59.45
2023-04-27T06:23:33.088Z,59.06
2023-04-27T06:26:02.404Z,58.85
2023-04-27T06:28:31.373Z,58.80
2023-04-27T06:30:59.606Z,58.76
2023-04-27T06:33:27.898Z,58.13
2023-04-27T06:35:56.408Z,58.08
2023-04-27T06:38:25.162Z,57.92
2023-04-27T06:40:54.979Z,57.82
2023-04-27T06:43:24.438Z,57.78
2023-04-27T06:45:52.769Z,57.81
2023-04-27T06:48:21.831Z,57.75
2023-04-27T06:50:50.111Z,57.68
2023-04-27T06:53:18.541Z,57.57
2023-04-27T06:55:48.432Z,57.24
2023-04-27T06:58:18.321Z,57.23
2023-04-27T07:00:47.011Z,57.03
2023-04-27T07:03:15.704Z,56.96
2023-04-27T07:05:44.099Z,56.64
2023-04-27T07:08:14.180Z,56.49
2023-04-27T07:10:42.558Z,56.53
2023-04-27T07:13:12.426Z,56.09
2023-04-27T07:15:42.916Z,55.71
2023-04-27T07:18:12.185Z,55.36
2023-04-27T07:20:42.223Z,55.07
2023-04-27T07:23:10.731Z,54.33
2023-04-27T07:25:40.299Z,54.20
2023-04-27T07:28:09.342Z,53.39
2023-04-27T07:30:38.005Z,53.47
2023-04-27T07:33:08.415Z,53.29
2023-04-27T07:35:37.138Z,52.71
2023-04-27T07:38:06.852Z,52.60
2023-04-27T07:40:35.268Z,52.46
2023-04-27T07:43:04.144Z,52.12
2023-04-27T07:45:33.003Z,51.84
2023-04-27T07:48:02.696Z,51.40
2023-04-27T07:50:33.478Z,51.29
2023-04-27T07:53:01.852Z,50.98
2023-04-27T07:55:31.016Z,51.17
2023-04-27T07:57:59.302Z,50.83
2023-04-27T08:00:28.325Z,51.01
2023-04-27T08:02:57.101Z,50.34
2023-04-27T08:05:26.703Z,50.39
2023-04-27T08:07:57.538Z,50.00
2023-04-27T08:10:25.946Z,49.55
2023-04-27T08:12:54.834Z,49.62
2023-04-27T08:15:23.060Z,49.49
2023-04-27T08:17:51.416Z,48.98
2023-04-27T08:20:19.961Z,48.86
2023-04-27T08:22:48.274Z,48.56
2023-04-27T08:25:18.357Z,48.15
2023-04-27T08:27:46.679Z,48.09
2023-04-27T08:30:15.350Z,47.62
2023-04-27T08:32:43.650Z,46.96
2023-04-27T08:35:12.232Z,46.33
2023-04-27T08:37:40.898Z,45.88
2023-04-27T08:40:10.887Z,45.47
2023-04-27T08:42:54.669Z,45.27
2023-04-27T08:45:23.713Z,44.59
2023-04-27T08:47:52.426Z,44.16
2023-04-27T08:50:21.379Z,43.77
2023-04-27T08:52:50.700Z,43.21
2023-04-27T08:55:19.046Z,42.79
2023-04-27T08:58:06.318Z,42.58
2023-04-27T09:00:40.690Z,42.34
2023-04-27T09:03:09.261Z,42.18
2023-04-27T09:05:42.279Z,41.86
2023-04-27T09:08:14.792Z,41.59
2023-04-27T09:10:47.145Z,41.09
2023-04-27T09:13:17.332Z,40.55
2023-04-27T09:15:48.791Z,40.06
2023-04-27T09:18:19.853Z,40.12
2023-04-27T09:20:50.137Z,39.92
2023-04-27T09:23:28.877Z,39.49
2023-04-27T09:25:58.252Z,39.15
2023-04-27T09:28:29.404Z,38.72
2023-04-27T09:30:59.282Z,39.01
2023-04-27T09:33:29.994Z,38.37
2023-04-27T09:35:59.728Z,38.02
2023-04-27T09:38:29.156Z,37.85
2023-04-27T09:40:57.648Z,37.53
2023-04-27T09:43:27.345Z,36.88
2023-04-27T09:45:57.555Z,36.48
2023-04-27T09:48:27.133Z,36.27
2023-04-27T09:50:55.485Z,35.85
2023-04-27T09:53:27.596Z,35.79
2023-04-27T09:56:14.509Z,35.68
2023-04-27T09:59:06.529Z,35.34
2023-04-27T10:01:41.433Z,34.82
2023-04-27T10:04:36.660Z,34.81
2023-04-27T10:07:08.578Z,34.77
2023-04-27T10:09:38.579Z,34.38
2023-04-27T10:12:19.278Z,34.16
2023-04-27T10:14:55.692Z,33.57
2023-04-27T10:17:31.576Z,33.29
2023-04-27T10:20:01.125Z,33.43
2023-04-27T10:22:40.463Z,33.22
2023-04-27T10:25:18.062Z,33.20
2023-04-27T10:27:52.163Z,32.96
2023-04-27T10:30:22.007Z,32.69
2023-04-27T10:32:56.843Z,32.52
2023-04-27T10:35:34.782Z,32.15
2023-04-27T10:38:07.616Z,31.62
2023-04-27T10:40:38.515Z,31.82
2023-04-27T10:43:11.303Z,31.25
2023-04-27T10:45:40.536Z,31.58
2023-04-27T10:48:16.140Z,31.54
2023-04-27T10:50:47.203Z,31.61
2023-04-27T10:53:15.691Z,31.91
2023-04-27T10:55:44.806Z,31.73
2023-04-27T10:58:13.147Z,31.98
2023-04-27T11:00:44.987Z,32.03
2023-04-27T11:03:18.561Z,31.88
2023-04-27T11:05:49.074Z,31.90
2023-04-27T11:08:21.400Z,30.88
2023-04-27T11:10:52.150Z,31.21
2023-04-27T11:13:23.871Z,31.43
2023-04-27T11:15:54.652Z,31.20
2023-04-27T11:18:27.786Z,31.50
2023-04-27T11:21:08.019Z,31.40
2023-04-27T11:23:38.957Z,31.65
2023-04-27T11:26:11.064Z,31.53
2023-04-27T11:28:40.513Z,31.47
2023-04-27T11:31:09.101Z,30.83
2023-04-27T11:33:41.161Z,30.94
2023-04-27T11:36:19.167Z,30.41
2023-04-27T11:38:50.055Z,30.95
2023-04-27T11:41:18.808Z,30.11
2023-04-27T11:43:49.173Z,29.70
2023-04-27T11:46:22.324Z,29.74
2023-04-27T11:48:51.992Z,29.36
2023-04-27T11:51:20.689Z,28.77
2023-04-27T11:53:51.581Z,29.04
2023-04-27T11:56:19.907Z,29.73
2023-04-27T11:58:49.598Z,29.85
2023-04-27T12:01:27.545Z,30.28
2023-04-27T12:04:05.835Z,29.87
2023-04-27T12:06:34.748Z,30.06
2023-04-27T12:09:04.686Z,29.56
2023-04-27T12:11:34.305Z,29.40
2023-04-27T12:14:03.809Z,29.09
2023-04-27T12:16:32.285Z,28.47
2023-04-27T12:19:01.050Z,28.44
2023-04-27T12:21:32.146Z,27.59
2023-04-27T12:24:01.437Z,27.93
2023-04-27T12:26:30.621Z,27.79
2023-04-27T12:28:59.897Z,27.53
2023-04-27T12:31:28.363Z,27.36
2023-04-27T12:33:57.520Z,26.51
2023-04-27T12:36:27.298Z,26.27
2023-04-27T12:39:00.724Z,26.31
2023-04-27T12:41:29.269Z,26.49
2023-04-27T12:43:58.768Z,26.45
2023-04-27T12:46:27.972Z,26.15
2023-04-27T12:48:57.055Z,26.34
2023-04-27T12:51:28.640Z,25.82
2023-04-27T12:54:00.809Z,25.64
2023-04-27T12:56:30.699Z,25.51
2023-04-27T12:59:00.157Z,25.54
2023-04-27T13:01:29.181Z,25.66
2023-04-27T13:04:01.292Z,25.65
2023-04-27T13:06:31.221Z,25.72
2023-04-27T13:09:03.584Z,25.21
2023-04-27T13:11:31.960Z,25.76
2023-04-27T13:14:02.428Z,25.44
2023-04-27T13:16:30.845Z,25.44
2023-04-27T13:19:00.731Z,25.44
2023-04-27T13:21:29.489Z,25.49
2023-04-27T13:24:00.242Z,24.86
2023-04-27T13:26:30.246Z,24.51
2023-04-27T13:28:59.176Z,24.71
2023-04-27T13:31:27.629Z,24.77
2023-04-27T13:33:56.476Z,24.55
2023-04-27T13:36:24.878Z,24.43
2023-04-27T13:38:53.191Z,24.63
2023-04-27T13:41:22.873Z,24.70
2023-04-27T13:43:52.535Z,24.46
2023-04-27T13:46:20.989Z,24.32
2023-04-27T13:48:49.509Z,24.30
2023-04-27T13:51:17.848Z,24.41
2023-04-27T13:53:46.980Z,24.13
2023-04-27T13:56:15.329Z,24.38
2023-04-27T13:58:44.103Z,24.47
2023-04-27T14:01:13.868Z,24.15
2023-04-27T14:03:43.886Z,23.92
2023-04-27T14:06:12.414Z,23.91
2023-04-27T14:08:41.568Z,23.99
2023-04-27T14:11:12.859Z,24.10
2023-04-27T14:13:41.184Z,24.39
2023-04-27T14:16:09.982Z,24.23
2023-04-27T14:18:39.738Z,25.00
2023-04-27T14:21:09.018Z,25.53
2023-04-27T14:23:37.536Z,25.76
2023-04-27T14:26:06.235Z,25.68
2023-04-27T14:28:34.653Z,25.41
2023-04-27T14:31:03.495Z,25.64
2023-04-27T14:33:32.302Z,25.38
2023-04-27T14:36:02.737Z,25.45
2023-04-27T14:38:31.416Z,25.22
2023-04-27T14:41:00.515Z,25.26
2023-04-27T14:43:28.839Z,25.10
2023-04-27T14:46:08.155Z,25.13
2023-04-27T14:48:46.283Z,24.91
2023-04-27T14:51:17.346Z,25.05
2023-04-27T14:53:46.289Z,24.93
2023-04-27T14:56:15.135Z,25.01
2023-04-27T14:58:44.022Z,25.33
2023-04-27T15:01:12.425Z,25.06
2023-04-27T15:03:41.434Z,25.41
2023-04-27T15:06:09.960Z,25.12
2023-04-27T15:08:40.715Z,25.02
2023-04-27T15:11:09.072Z,24.87
2023-04-27T15:13:37.849Z,25.12
2023-04-27T15:16:07.284Z,25.40
2023-04-27T15:18:36.291Z,25.40
2023-04-27T15:21:05.065Z,25.50
2023-04-27T15:23:33.848Z,25.43
2023-04-27T15:26:03.938Z,25.32
2023-04-27T15:28:33.724Z,25.15
2023-04-27T15:31:02.147Z,25.37
2023-04-27T15:33:31.075Z,25.55
2023-04-27T15:36:00.400Z,25.73
2023-04-27T15:38:28.729Z,25.99
2023-04-27T15:40:57.134Z,26.19
2023-04-27T15:43:27.041Z,25.83
2023-04-27T15:45:56.561Z,26.07
2023-04-27T15:48:25.968Z,26.18
2023-04-27T15:50:55.155Z,26.25
2023-04-27T15:53:23.527Z,26.50
2023-04-27T15:55:52.771Z,26.31
2023-04-27T15:58:21.430Z,26.57
2023-04-27T16:00:52.128Z,26.46
2023-04-27T16:03:20.580Z,26.07
2023-04-27T16:05:51.060Z,25.94
2023-04-27T16:08:19.517Z,26.07
2023-04-27T16:10:48.388Z,26.16
2023-04-27T16:13:16.776Z,25.76
2023-04-27T16:15:45.148Z,25.80
2023-04-27T16:18:14.792Z,25.55
2023-04-27T16:20:43.574Z,25.79
2023-04-27T16:23:11.999Z,25.82
2023-04-27T16:25:42.038Z,25.73
2023-04-27T16:28:10.373Z,25.43
2023-04-27T16:30:38.846Z,25.60
2023-04-27T16:33:07.745Z,25.61
2023-04-27T16:35:37.420Z,25.91
2023-04-27T16:38:07.009Z,26.37
2023-04-27T16:40:35.391Z,26.83
2023-04-27T16:43:04.633Z,26.85
2023-04-27T16:45:34.078Z,26.76
2023-04-27T16:48:03.724Z,26.99
2023-04-27T16:50:33.396Z,27.42
2023-04-27T16:53:07.632Z,27.88
2023-04-27T16:55:37.129Z,28.12
2023-04-27T16:58:05.490Z,27.99
2023-04-27T17:00:34.876Z,28.08
2023-04-27T17:03:03.381Z,27.93
2023-04-27T17:05:32.755Z,28.57
2023-04-27T17:08:02.624Z,28.46
2023-04-27T17:10:35.561Z,28.15
2023-04-27T17:13:05.535Z,27.94
2023-04-27T17:15:34.153Z,27.93
2023-04-27T17:18:05.585Z,28.11
2023-04-27T17:20:34.006Z,28.45
2023-04-27T17:23:03.884Z,28.56
2023-04-27T17:25:33.642Z,28.87
2023-04-27T17:28:02.735Z,28.97
2023-04-27T17:30:31.051Z,28.62
2023-04-27T17:32:59.879Z,28.55
2023-04-27T17:35:29.217Z,29.11
2023-04-27T17:37:57.662Z,28.61
2023-04-27T17:40:26.027Z,29.26
2023-04-27T17:42:58.245Z,29.80
2023-04-27T17:45:29.110Z,29.73
2023-04-27T17:47:57.494Z,30.21
2023-04-27T17:50:26.790Z,30.46
2023-04-27T17:52:55.650Z,30.77
2023-04-27T17:55:25.030Z,30.99
2023-04-27T17:57:54.346Z,31.47
2023-04-27T18:00:24.647Z,31.77
2023-04-27T18:02:53.072Z,32.29
2023-04-27T18:05:22.008Z,32.44
2023-04-27T18:07:50.412Z,32.53
2023-04-27T18:10:19.034Z,32.99
2023-04-27T18:12:47.431Z,33.58
2023-04-27T18:15:15.864Z,33.91
2023-04-27T18:17:46.541Z,34.25
2023-04-27T18:20:15.646Z,34.80
2023-04-27T18:22:45.730Z,34.82
2023-04-27T18:25:14.121Z,35.36
2023-04-27T18:27:44.002Z,35.42
2023-04-27T18:30:12.794Z,35.72
2023-04-27T18:32:42.315Z,35.88
2023-04-27T18:35:13.343Z,36.31
2023-04-27T18:37:41.730Z,36.48
2023-04-27T18:40:13.510Z,36.76
2023-04-27T18:42:41.905Z,37.13
2023-04-27T18:45:11.650Z,37.22
2023-04-27T18:47:40.800Z,37.21
2023-04-27T18:50:09.921Z,37.29
2023-04-27T18:52:39.782Z,37.49
2023-04-27T18:55:10.149Z,37.78
2023-04-27T18:57:38.578Z,37.62
2023-04-27T19:00:09.005Z,38.54
2023-04-27T19:02:37.674Z,39.16
2023-04-27T19:05:13.030Z,39.39
2023-04-27T19:07:44.933Z,39.33
2023-04-27T19:10:13.401Z,39.93
2023-04-27T19:12:42.137Z,40.25
2023-04-27T19:15:11.509Z,40.18
2023-04-27T19:17:41.374Z,40.38
2023-04-27T19:20:11.438Z,40.64
2023-04-27T19:22:40.172Z,41.00
2023-04-27T19:25:10.758Z,40.85
2023-04-27T19:27:39.959Z,41.07
2023-04-27T19:30:09.767Z,41.20
2023-04-27T19:32:38.392Z,41.48
2023-04-27T19:35:11.706Z,41.74
2023-04-27T19:37:40.171Z,41.73
2023-04-27T19:40:11.357Z,42.33
2023-04-27T19:42:39.667Z,42.26
2023-04-27T19:45:09.556Z,42.17
2023-04-27T19:47:38.062Z,42.27
2023-04-27T19:50:07.648Z,42.29
2023-04-27T19:52:36.403Z,42.93
2023-04-27T19:55:05.195Z,42.90
2023-04-27T19:57:34.884Z,42.95
2023-04-27T20:00:04.928Z,43.26
2023-04-27T20:02:41.735Z,43.27
2023-04-27T20:05:11.419Z,43.51
2023-04-27T20:07:40.586Z,43.83
2023-04-27T20:10:09.346Z,43.64
2023-04-27T20:12:54.392Z,43.70
2023-04-27T20:15:25.286Z,43.80
2023-04-27T20:17:54.315Z,43.89
2023-04-27T20:20:22.808Z,43.71
2023-04-27T20:22:52.755Z,44.07
2023-04-27T20:25:21.091Z,44.20
2023-04-27T20:27:51.788Z,44.29
2023-04-27T20:30:20.653Z,44.48
2023-04-27T20:32:49.573Z,44.61
2023-04-27T20:35:19.510Z,44.81
2023-04-27T20:37:47.869Z,45.01
2023-04-27T20:40:18.206Z,45.04
2023-04-27T20:42:49.894Z,45.47
2023-04-27T20:45:19.967Z,45.68
2023-04-27T20:47:49.078Z,45.76
2023-04-27T20:50:17.572Z,45.83
2023-04-27T20:52:46.516Z,46.12
2023-04-27T20:55:15.062Z,46.33
2023-04-27T20:57:43.956Z,46.18
2023-04-27T21:00:15.323Z,46.33
2023-04-27T21:02:45.352Z,46.33
2023-04-27T21:05:13.804Z,46.18
2023-04-27T21:07:43.249Z,46.36
2023-04-27T21:10:13.116Z,46.65
2023-04-27T21:12:42.012Z,46.82
2023-04-27T21:15:10.871Z,46.62
2023-04-27T21:17:39.705Z,46.76
2023-04-27T21:20:11.212Z,46.83
2023-04-27T21:22:39.586Z,47.05
2023-04-27T21:25:08.838Z,47.21
2023-04-27T21:27:37.590Z,47.08
2023-04-27T21:30:08.463Z,47.45
2023-04-27T21:32:36.830Z,47.35
2023-04-27T21:35:06.020Z,47.55
2023-04-27T21:37:36.305Z,47.46
2023-04-27T21:40:06.698Z,47.34
2023-04-27T21:42:35.520Z,47.34
2023-04-27T21:45:04.677Z,47.30
2023-04-27T21:47:33.630Z,47.65
2023-04-27T21:50:02.012Z,47.67
2023-04-27T21:52:30.867Z,47.97
2023-04-27T21:55:00.536Z,47.86
2023-04-27T21:57:30.264Z,48.16
2023-04-27T21:59:58.612Z,48.26
2023-04-27T22:02:29.441Z,48.45
2023-04-27T22:04:59.392Z,48.59
2023-04-27T22:07:28.377Z,48.96
2023-04-27T22:09:57.178Z,48.60
2023-04-27T22:12:26.947Z,48.63
2023-04-27T22:14:55.622Z,48.95
2023-04-27T22:17:23.980Z,48.65
2023-04-27T22:19:53.243Z,49.04
2023-04-27T22:22:21.643Z,49.11
2023-04-27T22:24:50.629Z,49.12
2023-04-27T22:27:19.753Z,49.07
2023-04-27T22:29:50.366Z,49.28
2023-04-27T22:32:18.783Z,49.07
2023-04-27T22:34:47.710Z,48.81
2023-04-27T22:37:16.211Z,48.96
2023-04-27T22:39:45.751Z,48.95
2023-04-27T22:42:14.505Z,48.97
2023-04-27T22:44:43.269Z,49.27
2023-04-27T22:47:13.260Z,49.32
2023-04-27T22:49:42.242Z,49.00
2023-04-27T22:52:11.642Z,49.27
2023-04-27T22:54:40.020Z,49.34
2023-04-27T22:57:08.795Z,49.43
2023-04-27T22:59:37.187Z,49.45
2023-04-27T23:02:06.574Z,49.07
2023-04-27T23:04:36.310Z,49.19
2023-04-27T23:07:05.721Z,49.44
2023-04-27T23:09:34.824Z,49.07
2023-04-27T23:12:03.366Z,49.43
2023-04-27T23:14:33.407Z,49.56
2023-04-27T23:17:02.343Z,49.58
2023-04-27T23:19:30.979Z,49.35
2023-04-27T23:22:01.895Z,49.83
2023-04-27T23:24:30.707Z,49.89
2023-04-27T23:27:00.109Z,49.90
2023-04-27T23:29:28.512Z,49.88
2023-04-27T23:32:02.537Z,50.31
2023-04-27T23:34:32.330Z,49.66
2023-04-27T23:37:02.126Z,50.13
2023-04-27T23:39:30.955Z,49.96
2023-04-27T23:41:59.846Z,50.20
2023-04-27T23:44:28.708Z,50.25
2023-04-27T23:46:57.475Z,50.28
2023-04-27T23:49:25.991Z,50.00
2023-04-27T23:51:54.405Z,50.33
2023-04-27T23:54:26.493Z,50.40
2023-04-27T23:56:54.874Z,50.78
2023-04-27T23:59:23.970Z,50.20
